sensor_id;sensor_type;location;lat;lon;timestamp;pressure;altitude;pressure_sealevel;temperature;humidity
32875;BME280;40468;42.128;24.750;2023-02-04T00:00:00;99647.81;;;4.47;44.82
32875;BME280;40468;42.128;24.750;2023-02-04T00:01:31;99652.88;;;4.50;44.96
32875;BME280;40468;42.128;24.750;2023-02-04T00:03:04;99646.84;;;4.51;45.03
32875;BME280;40468;42.128;24.750;2023-02-04T00:04:36;99647.66;;;4.53;45.10
32875;BME280;40468;42.128;24.750;2023-02-04T00:06:07;99640.72;;;4.55;45.08
32875;BME280;40468;42.128;24.750;2023-02-04T00:07:39;99645.00;;;4.56;45.29
32875;BME280;40468;42.128;24.750;2023-02-04T00:09:11;99640.69;;;4.56;45.30
32875;BME280;40468;42.128;24.750;2023-02-04T00:10:42;99636.44;;;4.55;45.48
32875;BME280;40468;42.128;24.750;2023-02-04T00:12:14;99628.72;;;4.54;45.51
32875;BME280;40468;42.128;24.750;2023-02-04T00:13:48;99637.28;;;4.54;45.69
32875;BME280;40468;42.128;24.750;2023-02-04T00:15:20;99633.03;;;4.52;45.86
32875;BME280;40468;42.128;24.750;2023-02-04T00:16:51;99622.78;;;4.50;46.04
32875;BME280;40468;42.128;24.750;2023-02-04T00:18:23;99620.22;;;4.50;46.02
32875;BME280;40468;42.128;24.750;2023-02-04T00:19:55;99628.81;;;4.49;46.08
32875;BME280;40468;42.128;24.750;2023-02-04T00:21:27;99620.22;;;4.49;46.12
32875;BME280;40468;42.128;24.750;2023-02-04T00:22:58;99622.78;;;4.50;46.01
32875;BME280;40468;42.128;24.750;2023-02-04T00:24:30;99628.78;;;4.51;46.14
32875;BME280;40468;42.128;24.750;2023-02-04T00:26:02;99617.56;;;4.53;46.00
32875;BME280;40468;42.128;24.750;2023-02-04T00:27:34;99619.25;;;4.54;45.85
32875;BME280;40468;42.128;24.750;2023-02-04T00:29:08;99613.25;;;4.54;45.91
32875;BME280;40468;42.128;24.750;2023-02-04T00:30:39;99616.72;;;4.51;45.86
32875;BME280;40468;42.128;24.750;2023-02-04T00:32:11;99613.25;;;4.54;45.70
32875;BME280;40468;42.128;24.750;2023-02-04T00:33:43;99609.81;;;4.53;45.71
32875;BME280;40468;42.128;24.750;2023-02-04T00:35:15;99613.25;;;4.54;45.67
32875;BME280;40468;42.128;24.750;2023-02-04T00:36:47;99601.19;;;4.54;45.57
32875;BME280;40468;42.128;24.750;2023-02-04T00:38:19;99607.19;;;4.55;45.46
32875;BME280;40468;42.128;24.750;2023-02-04T00:39:52;99607.19;;;4.55;45.41
32875;BME280;40468;42.128;24.750;2023-02-04T00:41:24;99611.47;;;4.56;45.55
32875;BME280;40468;42.128;24.750;2023-02-04T00:42:56;99612.28;;;4.58;45.53
32875;BME280;40468;42.128;24.750;2023-02-04T00:44:29;99607.09;;;4.60;45.49
32875;BME280;40468;42.128;24.750;2023-02-04T00:46:01;99607.03;;;4.61;45.32
32875;BME280;40468;42.128;24.750;2023-02-04T00:47:32;99601.81;;;4.64;45.22
32875;BME280;40468;42.128;24.750;2023-02-04T00:49:04;99584.84;;;4.55;45.33
32875;BME280;40468;42.128;24.750;2023-02-04T00:50:39;99605.25;;;4.65;45.06
32875;BME280;40468;42.128;24.750;2023-02-04T00:52:11;99599.22;;;4.66;45.05
32875;BME280;40468;42.128;24.750;2023-02-04T00:53:43;99601.72;;;4.67;45.10
32875;BME280;40468;42.128;24.750;2023-02-04T00:55:15;99604.25;;;4.70;45.07
32875;BME280;40468;42.128;24.750;2023-02-04T00:56:47;99600.81;;;4.70;44.92
32875;BME280;40468;42.128;24.750;2023-02-04T00:58:19;99599.97;;;4.69;45.03
32875;BME280;40468;42.128;24.750;2023-02-04T00:59:51;99593.94;;;4.70;44.84
32875;BME280;40468;42.128;24.750;2023-02-04T01:01:23;99598.16;;;4.73;44.97
32875;BME280;40468;42.128;24.750;2023-02-04T01:02:55;99591.25;;;4.75;44.88
32875;BME280;40468;42.128;24.750;2023-02-04T01:04:27;99595.50;;;4.76;44.87
32875;BME280;40468;42.128;24.750;2023-02-04T01:05:58;99592.13;;;4.74;44.75
32875;BME280;40468;42.128;24.750;2023-02-04T01:07:30;99583.56;;;4.73;44.79
32875;BME280;40468;42.128;24.750;2023-02-04T01:09:02;99578.41;;;4.72;44.78
32875;BME280;40468;42.128;24.750;2023-02-04T01:10:34;99568.16;;;4.70;44.51
32875;BME280;40468;42.128;24.750;2023-02-04T01:12:06;99572.44;;;4.70;44.52
32875;BME280;40468;42.128;24.750;2023-02-04T01:13:36;99564.75;;;4.68;44.69
32875;BME280;40468;42.128;24.750;2023-02-04T01:15:10;99559.53;;;4.71;44.64
32875;BME280;40468;42.128;24.750;2023-02-04T01:16:42;99552.69;;;4.70;44.60
32875;BME280;40468;42.128;24.750;2023-02-04T01:18:12;99550.88;;;4.72;44.55
32875;BME280;40468;42.128;24.750;2023-02-04T01:19:44;99539.66;;;4.75;44.55
32875;BME280;40468;42.128;24.750;2023-02-04T01:21:16;99546.47;;;4.77;44.45
32875;BME280;40468;42.128;24.750;2023-02-04T01:22:48;99534.41;;;4.78;44.38
32875;BME280;40468;42.128;24.750;2023-02-04T01:24:20;99526.63;;;4.79;44.66
32875;BME280;40468;42.128;24.750;2023-02-04T01:25:52;99529.22;;;4.79;44.61
32875;BME280;40468;42.128;24.750;2023-02-04T01:27:24;99526.63;;;4.79;44.79
32875;BME280;40468;42.128;24.750;2023-02-04T01:28:56;99512.88;;;4.79;44.83
32875;BME280;40468;42.128;24.750;2023-02-04T01:30:28;99511.19;;;4.78;44.90
32875;BME280;40468;42.128;24.750;2023-02-04T01:32:00;99507.00;;;4.74;44.93
32875;BME280;40468;42.128;24.750;2023-02-04T01:33:32;99503.66;;;4.70;45.10
32875;BME280;40468;42.128;24.750;2023-02-04T01:35:04;99500.28;;;4.68;45.06
32875;BME280;40468;42.128;24.750;2023-02-04T01:36:36;99489.28;;;4.62;45.17
32875;BME280;40468;42.128;24.750;2023-02-04T01:38:07;99477.22;;;4.62;45.20
32875;BME280;40468;42.128;24.750;2023-02-04T01:39:39;99470.44;;;4.58;45.30
32875;BME280;40468;42.128;24.750;2023-02-04T01:41:11;99466.22;;;4.55;45.14
32875;BME280;40468;42.128;24.750;2023-02-04T01:42:43;99469.66;;;4.54;45.28
32875;BME280;40468;42.128;24.750;2023-02-04T01:44:15;99463.66;;;4.54;45.35
32875;BME280;40468;42.128;24.750;2023-02-04T01:45:48;99459.34;;;4.54;45.15
32875;BME280;40468;42.128;24.750;2023-02-04T01:47:20;99464.50;;;4.54;45.23
32875;BME280;40468;42.128;24.750;2023-02-04T01:48:53;99469.66;;;4.54;45.37
32875;BME280;40468;42.128;24.750;2023-02-04T01:50:24;99481.72;;;4.54;45.54
32875;BME280;40468;42.128;24.750;2023-02-04T01:51:56;99470.59;;;4.52;45.52
32875;BME280;40468;42.128;24.750;2023-02-04T01:53:27;99464.56;;;4.53;45.52
32875;BME280;40468;42.128;24.750;2023-02-04T01:54:59;99472.41;;;4.48;45.59
32875;BME280;40468;42.128;24.750;2023-02-04T01:56:31;99461.28;;;4.46;45.69
32875;BME280;40468;42.128;24.750;2023-02-04T01:58:03;99467.31;;;4.45;45.72
32875;BME280;40468;42.128;24.750;2023-02-04T01:59:34;99466.44;;;4.46;45.74
32875;BME280;40468;42.128;24.750;2023-02-04T02:01:13;99461.28;;;4.46;45.74
32875;BME280;40468;42.128;24.750;2023-02-04T02:02:47;99451.94;;;4.42;45.96
32875;BME280;40468;42.128;24.750;2023-02-04T02:04:24;99458.69;;;4.46;45.81
32875;BME280;40468;42.128;24.750;2023-02-04T02:05:59;99458.75;;;4.45;45.79
32875;BME280;40468;42.128;24.750;2023-02-04T02:07:31;99455.34;;;4.44;45.88
32875;BME280;40468;42.128;24.750;2023-02-04T02:09:02;99453.59;;;4.45;45.87
32875;BME280;40468;42.128;24.750;2023-02-04T02:10:35;99447.59;;;4.44;45.85
32875;BME280;40468;42.128;24.750;2023-02-04T02:12:08;99443.28;;;4.45;45.88
32875;BME280;40468;42.128;24.750;2023-02-04T02:13:39;99449.25;;;4.47;45.95
32875;BME280;40468;42.128;24.750;2023-02-04T02:15:13;99447.47;;;4.49;45.82
32875;BME280;40468;42.128;24.750;2023-02-04T02:16:46;99438.88;;;4.48;45.86
32875;BME280;40468;42.128;24.750;2023-02-04T02:18:18;99442.38;;;4.47;45.98
32875;BME280;40468;42.128;24.750;2023-02-04T02:19:50;99437.22;;;4.47;46.00
32875;BME280;40468;42.128;24.750;2023-02-04T02:21:29;99443.22;;;4.46;45.98
32875;BME280;40468;42.128;24.750;2023-02-04T02:23:09;99437.22;;;4.47;46.09
32875;BME280;40468;42.128;24.750;2023-02-04T02:24:45;99435.47;;;4.48;46.01
32875;BME280;40468;42.128;24.750;2023-02-04T02:26:18;99426.06;;;4.47;45.99
32875;BME280;40468;42.128;24.750;2023-02-04T02:27:50;99427.72;;;4.48;46.01
32875;BME280;40468;42.128;24.750;2023-02-04T02:29:22;99431.22;;;4.47;46.09
32875;BME280;40468;42.128;24.750;2023-02-04T02:30:54;99420.91;;;4.47;46.28
32875;BME280;40468;42.128;24.750;2023-02-04T02:32:27;99417.44;;;4.46;46.30
32875;BME280;40468;42.128;24.750;2023-02-04T02:33:58;99421.75;;;4.47;46.19
32875;BME280;40468;42.128;24.750;2023-02-04T02:35:30;99421.75;;;4.47;46.42
32875;BME280;40468;42.128;24.750;2023-02-04T02:37:02;99420.84;;;4.48;46.33
32875;BME280;40468;42.128;24.750;2023-02-04T02:38:33;99420.81;;;4.50;46.39
32875;BME280;40468;42.128;24.750;2023-02-04T02:40:08;99409.59;;;4.51;46.46
32875;BME280;40468;42.128;24.750;2023-02-04T02:41:40;99401.06;;;4.49;46.35
32875;BME280;40468;42.128;24.750;2023-02-04T02:43:13;99406.25;;;4.47;46.63
32875;BME280;40468;42.128;24.750;2023-02-04T02:44:47;99398.53;;;4.47;46.49
32875;BME280;40468;42.128;24.750;2023-02-04T02:46:20;99396.78;;;4.48;46.56
32875;BME280;40468;42.128;24.750;2023-02-04T02:47:53;99395.94;;;4.47;46.57
32875;BME280;40468;42.128;24.750;2023-02-04T02:49:31;99389.06;;;4.48;46.58
32875;BME280;40468;42.128;24.750;2023-02-04T02:51:04;99391.63;;;4.48;46.49
32875;BME280;40468;42.128;24.750;2023-02-04T02:52:36;99384.81;;;4.47;46.58
32875;BME280;40468;42.128;24.750;2023-02-04T02:54:19;99388.25;;;4.46;46.68
32875;BME280;40468;42.128;24.750;2023-02-04T02:55:53;99385.66;;;4.46;46.70
32875;BME280;40468;42.128;24.750;2023-02-04T02:57:25;99389.13;;;4.45;46.55
32875;BME280;40468;42.128;24.750;2023-02-04T02:58:57;99384.00;;;4.43;46.73
32875;BME280;40468;42.128;24.750;2023-02-04T03:00:36;99379.66;;;4.45;46.81
32875;BME280;40468;42.128;24.750;2023-02-04T03:02:10;99372.78;;;4.46;46.84
32875;BME280;40468;42.128;24.750;2023-02-04T03:03:45;99365.09;;;4.44;46.87
32875;BME280;40468;42.128;24.750;2023-02-04T03:05:19;99363.38;;;4.43;46.85
32875;BME280;40468;42.128;24.750;2023-02-04T03:06:50;99359.97;;;4.43;46.84
32875;BME280;40468;42.128;24.750;2023-02-04T03:08:23;99352.28;;;4.41;46.80
32875;BME280;40468;42.128;24.750;2023-02-04T03:09:54;99347.97;;;4.42;46.79
32875;BME280;40468;42.128;24.750;2023-02-04T03:11:27;99349.63;;;4.44;46.88
32875;BME280;40468;42.128;24.750;2023-02-04T03:12:59;99347.16;;;4.40;46.81
32875;BME280;40468;42.128;24.750;2023-02-04T03:14:32;99354.91;;;4.40;46.84
32875;BME280;40468;42.128;24.750;2023-02-04T03:16:05;99359.16;;;4.41;46.88
32875;BME280;40468;42.128;24.750;2023-02-04T03:17:38;99350.56;;;4.40;46.92
32875;BME280;40468;42.128;24.750;2023-02-04T03:19:10;99356.56;;;4.41;46.96
32875;BME280;40468;42.128;24.750;2023-02-04T03:20:43;99342.91;;;4.39;47.24
32875;BME280;40468;42.128;24.750;2023-02-04T03:22:15;99347.22;;;4.38;47.01
32875;BME280;40468;42.128;24.750;2023-02-04T03:23:46;99346.34;;;4.38;47.01
32875;BME280;40468;42.128;24.750;2023-02-04T03:25:18;99348.97;;;4.36;47.02
32875;BME280;40468;42.128;24.750;2023-02-04T03:26:51;99352.41;;;4.37;47.12
32875;BME280;40468;42.128;24.750;2023-02-04T03:28:23;99348.22;;;4.32;47.14
32875;BME280;40468;42.128;24.750;2023-02-04T03:29:55;99349.97;;;4.32;47.29
32875;BME280;40468;42.128;24.750;2023-02-04T03:31:27;99347.41;;;4.30;47.30
32875;BME280;40468;42.128;24.750;2023-02-04T03:32:59;99353.41;;;4.31;47.44
32875;BME280;40468;42.128;24.750;2023-02-04T03:34:31;99351.59;;;4.34;47.35
32875;BME280;40468;42.128;24.750;2023-02-04T03:36:03;99348.16;;;4.34;47.38
32875;BME280;40468;42.128;24.750;2023-02-04T03:37:34;99345.56;;;4.36;47.36
32875;BME280;40468;42.128;24.750;2023-02-04T03:39:06;99349.06;;;4.33;47.43
32875;BME280;40468;42.128;24.750;2023-02-04T03:40:38;99346.50;;;4.33;47.40
32875;BME280;40468;42.128;24.750;2023-02-04T03:42:11;99347.31;;;4.33;47.40
32875;BME280;40468;42.128;24.750;2023-02-04T03:43:43;99346.50;;;4.31;47.29
32875;BME280;40468;42.128;24.750;2023-02-04T03:45:15;99339.59;;;4.33;47.27
32875;BME280;40468;42.128;24.750;2023-02-04T03:46:46;99331.84;;;4.35;47.39
32875;BME280;40468;42.128;24.750;2023-02-04T03:48:18;99332.69;;;4.36;47.35
32875;BME280;40468;42.128;24.750;2023-02-04T03:49:49;99332.69;;;4.36;47.38
32875;BME280;40468;42.128;24.750;2023-02-04T03:51:21;99332.63;;;4.37;47.36
32875;BME280;40468;42.128;24.750;2023-02-04T03:52:52;99328.31;;;4.38;47.30
32875;BME280;40468;42.128;24.750;2023-02-04T03:54:24;99324.88;;;4.37;47.47
32875;BME280;40468;42.128;24.750;2023-02-04T03:55:56;99318.00;;;4.38;47.31
32875;BME280;40468;42.128;24.750;2023-02-04T03:57:28;99312.00;;;4.37;47.25
32875;BME280;40468;42.128;24.750;2023-02-04T03:59:00;99311.22;;;4.35;47.34
32875;BME280;40468;42.128;24.750;2023-02-04T04:00:32;99307.72;;;4.36;47.36
32875;BME280;40468;42.128;24.750;2023-02-04T04:02:04;99307.69;;;4.38;47.38
32875;BME280;40468;42.128;24.750;2023-02-04T04:03:36;99308.56;;;4.37;47.41
32875;BME280;40468;42.128;24.750;2023-02-04T04:05:07;99306.00;;;4.37;47.38
32875;BME280;40468;42.128;24.750;2023-02-04T04:06:39;99299.19;;;4.34;47.41
32875;BME280;40468;42.128;24.750;2023-02-04T04:08:12;99293.25;;;4.32;47.52
32875;BME280;40468;42.128;24.750;2023-02-04T04:09:42;99286.38;;;4.31;47.40
32875;BME280;40468;42.128;24.750;2023-02-04T04:11:15;99279.56;;;4.30;47.56
32875;BME280;40468;42.128;24.750;2023-02-04T04:12:48;99277.00;;;4.28;47.58
32875;BME280;40468;42.128;24.750;2023-02-04T04:14:20;99285.72;;;4.24;47.61
32875;BME280;40468;42.128;24.750;2023-02-04T04:15:52;99286.63;;;4.23;47.68
32875;BME280;40468;42.128;24.750;2023-02-04T04:17:24;99284.91;;;4.22;47.60
32875;BME280;40468;42.128;24.750;2023-02-04T04:18:55;99280.66;;;4.21;47.73
32875;BME280;40468;42.128;24.750;2023-02-04T04:20:27;99279.91;;;4.18;47.77
32875;BME280;40468;42.128;24.750;2023-02-04T04:21:58;99285.88;;;4.18;47.66
32875;BME280;40468;42.128;24.750;2023-02-04T04:23:30;99269.59;;;4.18;47.88
32875;BME280;40468;42.128;24.750;2023-02-04T04:25:02;99264.47;;;4.16;47.67
32875;BME280;40468;42.128;24.750;2023-02-04T04:26:34;99267.94;;;4.15;47.85
32875;BME280;40468;42.128;24.750;2023-02-04T04:28:07;99277.34;;;4.16;47.81
32875;BME280;40468;42.128;24.750;2023-02-04T04:29:39;99281.75;;;4.13;47.97
32875;BME280;40468;42.128;24.750;2023-02-04T04:31:11;99278.28;;;4.14;47.83
32875;BME280;40468;42.128;24.750;2023-02-04T04:32:43;99277.44;;;4.13;47.87
32875;BME280;40468;42.128;24.750;2023-02-04T04:34:14;99280.84;;;4.14;47.76
32875;BME280;40468;42.128;24.750;2023-02-04T04:35:46;99282.59;;;4.13;47.82
32875;BME280;40468;42.128;24.750;2023-02-04T04:37:18;99279.16;;;4.13;47.90
32875;BME280;40468;42.128;24.750;2023-02-04T04:38:50;99282.66;;;4.10;48.00
32875;BME280;40468;42.128;24.750;2023-02-04T04:40:21;99281.94;;;4.05;47.96
32875;BME280;40468;42.128;24.750;2023-02-04T04:41:53;99280.31;;;4.02;48.08
32875;BME280;40468;42.128;24.750;2023-02-04T04:43:26;99273.59;;;3.97;48.10
32875;BME280;40468;42.128;24.750;2023-02-04T04:44:58;99268.44;;;3.97;48.02
32875;BME280;40468;42.128;24.750;2023-02-04T04:46:30;99269.28;;;3.97;48.15
32875;BME280;40468;42.128;24.750;2023-02-04T04:48:02;99250.41;;;3.97;48.14
32875;BME280;40468;42.128;24.750;2023-02-04T04:49:34;99249.44;;;3.99;48.11
32875;BME280;40468;42.128;24.750;2023-02-04T04:51:05;99261.47;;;4.00;48.12
32875;BME280;40468;42.128;24.750;2023-02-04T04:52:37;99262.28;;;4.02;48.17
32875;BME280;40468;42.128;24.750;2023-02-04T04:54:08;99263.06;;;4.04;48.26
32875;BME280;40468;42.128;24.750;2023-02-04T04:55:40;99255.31;;;4.06;48.04
32875;BME280;40468;42.128;24.750;2023-02-04T04:57:12;99253.50;;;4.08;48.09
32875;BME280;40468;42.128;24.750;2023-02-04T04:58:44;99256.09;;;4.08;48.07
32875;BME280;40468;42.128;24.750;2023-02-04T05:00:17;99243.22;;;4.08;48.03
32875;BME280;40468;42.128;24.750;2023-02-04T05:01:49;99236.38;;;4.07;48.03
32875;BME280;40468;42.128;24.750;2023-02-04T05:03:21;99239.78;;;4.07;48.08
32875;BME280;40468;42.128;24.750;2023-02-04T05:04:53;99260.38;;;4.09;48.12
32875;BME280;40468;42.128;24.750;2023-02-04T05:06:25;99250.91;;;4.09;48.26
32875;BME280;40468;42.128;24.750;2023-02-04T05:07:56;99248.28;;;4.11;48.26
32875;BME280;40468;42.128;24.750;2023-02-04T05:09:28;99253.44;;;4.11;48.17
32875;BME280;40468;42.128;24.750;2023-02-04T05:11:00;99254.28;;;4.12;48.33
32875;BME280;40468;42.128;24.750;2023-02-04T05:12:32;99254.31;;;4.10;48.48
32875;BME280;40468;42.128;24.750;2023-02-04T05:14:05;99258.56;;;4.11;48.37
32875;BME280;40468;42.128;24.750;2023-02-04T05:15:37;99258.56;;;4.11;48.33
32875;BME280;40468;42.128;24.750;2023-02-04T05:17:09;99257.75;;;4.10;48.48
32875;BME280;40468;42.128;24.750;2023-02-04T05:18:40;99259.47;;;4.10;48.68
32875;BME280;40468;42.128;24.750;2023-02-04T05:20:12;99255.22;;;4.09;48.67
32875;BME280;40468;42.128;24.750;2023-02-04T05:21:44;99249.31;;;4.05;48.68
32875;BME280;40468;42.128;24.750;2023-02-04T05:23:16;99251.03;;;4.05;48.71
32875;BME280;40468;42.128;24.750;2023-02-04T05:24:48;99256.16;;;4.06;48.75
32875;BME280;40468;42.128;24.750;2023-02-04T05:26:20;99239.75;;;4.09;48.75
32875;BME280;40468;42.128;24.750;2023-02-04T05:27:52;99239.69;;;4.10;48.65
32875;BME280;40468;42.128;24.750;2023-02-04T05:29:25;99246.50;;;4.13;48.74
32875;BME280;40468;42.128;24.750;2023-02-04T05:30:57;99237.03;;;4.14;48.60
32875;BME280;40468;42.128;24.750;2023-02-04T05:32:29;99240.44;;;4.16;48.61
32875;BME280;40468;42.128;24.750;2023-02-04T05:34:01;99235.25;;;4.17;48.48
32875;BME280;40468;42.128;24.750;2023-02-04T05:35:33;99224.94;;;4.17;48.11
32875;BME280;40468;42.128;24.750;2023-02-04T05:37:05;99230.97;;;4.16;48.39
32875;BME280;40468;42.128;24.750;2023-02-04T05:38:37;99240.41;;;4.17;48.46
32875;BME280;40468;42.128;24.750;2023-02-04T05:40:10;99241.25;;;4.16;48.38
32875;BME280;40468;42.128;24.750;2023-02-04T05:41:42;99243.81;;;4.18;48.49
32875;BME280;40468;42.128;24.750;2023-02-04T05:43:14;99247.16;;;4.20;48.34
32875;BME280;40468;42.128;24.750;2023-02-04T05:44:47;99242.88;;;4.20;48.47
32875;BME280;40468;42.128;24.750;2023-02-04T05:46:19;99240.31;;;4.20;48.49
32875;BME280;40468;42.128;24.750;2023-02-04T05:47:50;99236.84;;;4.21;48.63
32875;BME280;40468;42.128;24.750;2023-02-04T05:49:22;99221.63;;;4.12;48.63
32875;BME280;40468;42.128;24.750;2023-02-04T05:50:54;99248.91;;;4.19;48.72
32875;BME280;40468;42.128;24.750;2023-02-04T05:52:26;99254.03;;;4.21;48.65
32875;BME280;40468;42.128;24.750;2023-02-04T05:53:58;99249.81;;;4.18;48.79
32875;BME280;40468;42.128;24.750;2023-02-04T05:55:30;99242.88;;;4.20;48.67
32875;BME280;40468;42.128;24.750;2023-02-04T05:57:02;99228.38;;;4.16;48.71
32875;BME280;40468;42.128;24.750;2023-02-04T05:58:34;99234.16;;;4.24;48.78
32875;BME280;40468;42.128;24.750;2023-02-04T06:00:09;99241.00;;;4.25;48.79
32875;BME280;40468;42.128;24.750;2023-02-04T06:01:42;99242.72;;;4.26;49.09
32875;BME280;40468;42.128;24.750;2023-02-04T06:03:14;99249.63;;;4.24;48.92
32875;BME280;40468;42.128;24.750;2023-02-04T06:04:48;99241.00;;;4.25;49.00
32875;BME280;40468;42.128;24.750;2023-02-04T06:06:20;99240.06;;;4.28;49.02
32875;BME280;40468;42.128;24.750;2023-02-04T06:07:52;99247.78;;;4.29;48.87
32875;BME280;40468;42.128;24.750;2023-02-04T06:09:24;99252.94;;;4.29;48.98
32875;BME280;40468;42.128;24.750;2023-02-04T06:10:55;99245.16;;;4.31;48.94
32875;BME280;40468;42.128;24.750;2023-02-04T06:12:27;99250.34;;;4.29;49.08
32875;BME280;40468;42.128;24.750;2023-02-04T06:13:59;99248.66;;;4.28;49.11
32875;BME280;40468;42.128;24.750;2023-02-04T06:15:32;99247.88;;;4.26;48.98
32875;BME280;40468;42.128;24.750;2023-02-04T06:17:04;99259.78;;;4.30;49.12
32875;BME280;40468;42.128;24.750;2023-02-04T06:18:36;99252.88;;;4.31;49.05
32875;BME280;40468;42.128;24.750;2023-02-04T06:20:10;99243.38;;;4.33;48.99
32875;BME280;40468;42.128;24.750;2023-02-04T06:21:44;99239.88;;;4.36;49.01
32875;BME280;40468;42.128;24.750;2023-02-04T06:23:16;99245.03;;;4.36;48.95
32875;BME280;40468;42.128;24.750;2023-02-04T06:24:48;99237.47;;;4.29;49.09
32875;BME280;40468;42.128;24.750;2023-02-04T06:26:20;99243.38;;;4.33;49.08
32875;BME280;40468;42.128;24.750;2023-02-04T06:27:50;99245.97;;;4.33;49.04
32875;BME280;40468;42.128;24.750;2023-02-04T06:29:22;99260.44;;;4.37;49.05
32875;BME280;40468;42.128;24.750;2023-02-04T06:30:56;99257.84;;;4.37;49.13
32875;BME280;40468;42.128;24.750;2023-02-04T06:32:28;99259.50;;;4.40;49.04
32875;BME280;40468;42.128;24.750;2023-02-04T06:34:00;99258.59;;;4.41;49.17
32875;BME280;40468;42.128;24.750;2023-02-04T06:35:31;99263.72;;;4.42;49.13
32875;BME280;40468;42.128;24.750;2023-02-04T06:37:03;99259.31;;;4.46;49.06
32875;BME280;40468;42.128;24.750;2023-02-04T06:38:35;99259.31;;;4.46;49.20
32875;BME280;40468;42.128;24.750;2023-02-04T06:40:08;99269.56;;;4.49;49.15
32875;BME280;40468;42.128;24.750;2023-02-04T06:41:40;99261.81;;;4.49;49.08
32875;BME280;40468;42.128;24.750;2023-02-04T06:43:12;99257.56;;;4.48;49.16
32875;BME280;40468;42.128;24.750;2023-02-04T06:44:44;99257.56;;;4.48;49.09
32875;BME280;40468;42.128;24.750;2023-02-04T06:46:17;99262.81;;;4.45;49.20
32875;BME280;40468;42.128;24.750;2023-02-04T06:47:48;99259.41;;;4.43;49.46
32875;BME280;40468;42.128;24.750;2023-02-04T06:49:20;99267.06;;;4.46;49.33
32875;BME280;40468;42.128;24.750;2023-02-04T06:50:51;99268.78;;;4.47;49.50
32875;BME280;40468;42.128;24.750;2023-02-04T06:52:23;99273.94;;;4.47;49.50
32875;BME280;40468;42.128;24.750;2023-02-04T06:53:54;99267.97;;;4.45;49.56
32875;BME280;40468;42.128;24.750;2023-02-04T06:55:26;99274.78;;;4.46;49.66
32875;BME280;40468;42.128;24.750;2023-02-04T06:56:58;99280.69;;;4.49;49.70
32875;BME280;40468;42.128;24.750;2023-02-04T06:58:36;99287.50;;;4.52;49.64
32875;BME280;40468;42.128;24.750;2023-02-04T07:00:10;99279.69;;;4.55;49.71
32875;BME280;40468;42.128;24.750;2023-02-04T07:01:44;99283.81;;;4.61;49.75
32875;BME280;40468;42.128;24.750;2023-02-04T07:03:15;99288.94;;;4.62;49.80
32875;BME280;40468;42.128;24.750;2023-02-04T07:04:47;99278.63;;;4.62;49.83
32875;BME280;40468;42.128;24.750;2023-02-04T07:06:20;99288.72;;;4.70;49.61
32875;BME280;40468;42.128;24.750;2023-02-04T07:07:51;99287.59;;;4.78;49.74
32875;BME280;40468;42.128;24.750;2023-02-04T07:09:23;99288.22;;;4.87;49.54
32875;BME280;40468;42.128;24.750;2023-02-04T07:10:54;99287.94;;;4.96;49.52
32875;BME280;40468;42.128;24.750;2023-02-04T07:12:26;99289.34;;;5.06;49.50
32875;BME280;40468;42.128;24.750;2023-02-04T07:13:58;99293.63;;;5.07;49.46
32875;BME280;40468;42.128;24.750;2023-02-04T07:15:29;99297.75;;;5.13;49.24
32875;BME280;40468;42.128;24.750;2023-02-04T07:17:03;99284.78;;;5.14;49.18
32875;BME280;40468;42.128;24.750;2023-02-04T07:18:35;99291.66;;;5.15;49.10
32875;BME280;40468;42.128;24.750;2023-02-04T07:20:08;99296.91;;;5.12;49.12
32875;BME280;40468;42.128;24.750;2023-02-04T07:21:40;99295.28;;;5.08;49.24
32875;BME280;40468;42.128;24.750;2023-02-04T07:23:11;99296.22;;;5.06;49.28
32875;BME280;40468;42.128;24.750;2023-02-04T07:24:43;99289.34;;;5.06;49.35
32875;BME280;40468;42.128;24.750;2023-02-04T07:26:15;99292.91;;;5.02;49.26
32875;BME280;40468;42.128;24.750;2023-02-04T07:27:47;99296.31;;;5.02;49.38
32875;BME280;40468;42.128;24.750;2023-02-04T07:29:19;99298.88;;;5.04;49.64
32875;BME280;40468;42.128;24.750;2023-02-04T07:30:51;99297.09;;;5.06;49.56
32875;BME280;40468;42.128;24.750;2023-02-04T07:32:24;99294.44;;;5.09;49.62
32875;BME280;40468;42.128;24.750;2023-02-04T07:33:57;99291.88;;;5.08;49.81
32875;BME280;40468;42.128;24.750;2023-02-04T07:35:29;99290.97;;;5.09;49.82
32875;BME280;40468;42.128;24.750;2023-02-04T07:37:01;99291.84;;;5.09;49.90
32875;BME280;40468;42.128;24.750;2023-02-04T07:38:33;99288.34;;;5.12;50.00
32875;BME280;40468;42.128;24.750;2023-02-04T07:40:06;99287.47;;;5.11;50.45
32875;BME280;40468;42.128;24.750;2023-02-04T07:41:38;99295.16;;;5.13;50.50
32875;BME280;40468;42.128;24.750;2023-02-04T07:43:09;99282.16;;;5.16;50.90
32875;BME280;40468;42.128;24.750;2023-02-04T07:44:42;99291.66;;;5.42;51.01
32875;BME280;40468;42.128;24.750;2023-02-04T07:46:12;99282.88;;;5.74;50.61
32875;BME280;40468;42.128;24.750;2023-02-04T07:47:46;99284.97;;;5.88;50.61
32875;BME280;40468;42.128;24.750;2023-02-04T07:49:18;99283.63;;;6.03;50.38
32875;BME280;40468;42.128;24.750;2023-02-04T07:50:50;99274.84;;;6.32;50.47
32875;BME280;40468;42.128;24.750;2023-02-04T07:52:22;99267.19;;;6.98;49.88
32875;BME280;40468;42.128;24.750;2023-02-04T07:53:54;99253.91;;;7.70;48.96
32875;BME280;40468;42.128;24.750;2023-02-04T07:55:26;99246.81;;;8.54;47.80
32875;BME280;40468;42.128;24.750;2023-02-04T07:56:58;99240.69;;;9.29;46.16
32875;BME280;40468;42.128;24.750;2023-02-04T07:58:30;99241.03;;;9.91;44.72
32875;BME280;40468;42.128;24.750;2023-02-04T08:00:03;99235.25;;;10.52;43.41
32875;BME280;40468;42.128;24.750;2023-02-04T08:01:35;99226.50;;;11.01;42.39
32875;BME280;40468;42.128;24.750;2023-02-04T08:03:08;99220.25;;;11.49;41.90
32875;BME280;40468;42.128;24.750;2023-02-04T08:04:40;99216.91;;;11.92;40.46
32875;BME280;40468;42.128;24.750;2023-02-04T08:06:12;99217.09;;;12.17;40.01
32875;BME280;40468;42.128;24.750;2023-02-04T08:07:44;99224.28;;;12.42;39.62